Ana Sayfa
METAR-TAF:

METAR-TAF

Havaalanları :

Guayaquil, Ekvador

Enlem: 02-09S, Boylam: 079-53W, yükseklik: 4 m

Güncel hava durumu gözlemi

Rapor saat 01:00 UTC de 29 dakika önce yapıldı.
Rüzgar güney/güneybatıdan 10 kt
Sıcaklık 25°C
Nem 74%
Basınç 1011 hPa
Görüş mesafesi 10 km veya daha fazla
3300 ft yükseklikte parçalı bulutlu

METAR: SEGU 220100Z 21010KT 9999 SCT033 25/20 Q1011 NOSIG RMK A2987

Saat: 20:29 (01:29 UTC)

Tahmin

Rapor saat 22:21 UTC de 3 saat ve 8 dakika önce yapıldı.
Ayın 22'si saat 00 UTC'den ayın 22'si saat 24 UTC'ye kadar geçerli Tahmin
Rüzgar güneybatıdan 13 kt
Görüş mesafesi 10 km veya daha fazla
1500 m altında bulut yok ve kümülonimbus yok
Ayın 22'si saat 1500 UTC'den
Rüzgar güney/güneydoğudan 6 kt
Görüş mesafesi 10 km veya daha fazla
2600 ft yükseklikte parçalı bulutlu

TAF: SEGU 212221Z 2200/2224 22013KT CAVOK FM221500 15006KT 9999 SCT026 TX30/2220Z TN21/2210Z

4.000'den fazla havaalanı için hava durumu gözlemleri ve tahminleri (METAR ve TAF raporları).

Kullanılabilir istasyonlar harita üzerinde sarı ve kırmızı noktalarla gösterilir.

İstasyonun adını görmek için fareyi noktanın üzerinde gezdirin.

Sonrasında hava gözlem ve tahminlerini görmek için tıklayın.

Haritayı değiştirmek için: yaklaştırmak için siyah artı işaretli yeşil düğmeye ve uzaklaştırmak için de eksi işaretli düğmeye hızla tıklayın; bitişik haritalar için yeşil okları kullanın.


METAR-TAF: